Time;durP1;ratioP1;P1;durP2;ratioP2;P2;SDS_P1;SDS_P2;PMS_P1;PMS_P2;Temp;Humidity;BMP_temperature;BMP_pressure;BME280_temperature;BME280_humidity;BME280_pressure;Samples;Min_cycle;Max_cycle;Signal;HPM_P1;HPM_P2
2022/06/11 00:01:07;;;;;;;3.58;2.28;;;;;;;16.56;62.14;101551.06;5052275;28;20136;-51
2022/06/11 00:03:35;;;;;;;6.00;2.58;;;;;;;16.55;62.24;101544.13;5052455;28;20107;-53
2022/06/11 00:06:04;;;;;;;4.32;2.78;;;;;;;16.55;62.00;101541.50;5051770;28;20080;-54
2022/06/11 00:08:33;;;;;;;4.22;2.45;;;;;;;16.55;61.93;101541.50;5052033;28;20064;-54
2022/06/11 00:11:01;;;;;;;4.88;2.22;;;;;;;16.54;62.09;101534.53;5059839;28;20102;-50
2022/06/11 00:13:28;;;;;;;5.97;2.30;;;;;;;16.54;62.12;101539.78;5072487;28;20139;-53
2022/06/11 00:16:01;;;;;;;6.28;2.90;;;;;;;16.54;62.01;101535.41;5071627;28;20063;-50
2022/06/11 00:18:28;;;;;;;4.38;2.53;;;;;;;16.54;62.22;101537.16;5072768;28;20698;-50
2022/06/11 00:20:55;;;;;;;10.93;3.05;;;;;;;16.53;62.29;101533.69;5075973;28;20048;-51
2022/06/11 00:23:23;;;;;;;4.95;2.40;;;;;;;16.53;62.35;101523.22;5075741;28;20381;-51
2022/06/11 00:25:50;;;;;;;5.15;2.50;;;;;;;16.52;62.42;101526.72;5076132;28;20094;-54
2022/06/11 00:28:19;;;;;;;5.70;2.63;;;;;;;16.50;62.12;101527.63;5075107;28;20080;-50
2022/06/11 00:30:47;;;;;;;6.20;2.90;;;;;;;16.50;62.47;101527.63;5075172;28;20354;-51
2022/06/11 00:33:17;;;;;;;3.15;2.20;;;;;;;16.49;62.50;101525.91;5075434;28;20135;-54
2022/06/11 00:35:45;;;;;;;5.13;2.50;;;;;;;16.47;62.58;101522.47;5075564;28;20743;-53
2022/06/11 00:38:12;;;;;;;4.10;1.95;;;;;;;16.46;62.72;101520.75;5075433;28;20049;-54
2022/06/11 00:40:42;;;;;;;4.80;2.38;;;;;;;16.44;62.59;101522.53;5075411;28;20109;-51
2022/06/11 00:43:10;;;;;;;5.50;2.30;;;;;;;16.41;62.53;101519.09;5075351;28;20053;-52
2022/06/11 00:45:44;;;;;;;6.60;2.53;;;;;;;16.40;62.55;101519.97;5075732;28;20125;-51
2022/06/11 00:48:17;;;;;;;3.83;1.98;;;;;;;16.40;62.41;101517.38;5075486;28;20033;-50
2022/06/11 00:50:50;;;;;;;4.93;2.17;;;;;;;16.40;62.75;101526.97;5075393;28;20052;-51
2022/06/11 00:53:25;;;;;;;4.93;1.90;;;;;;;16.38;62.80;101521.78;5075358;28;20056;-51
2022/06/11 00:55:52;;;;;;;5.20;2.20;;;;;;;16.38;62.68;101519.16;5075467;28;20139;-51
2022/06/11 00:58:21;;;;;;;5.38;2.25;;;;;;;16.39;62.88;101526.09;5074977;28;20495;-50
2022/06/11 01:00:52;;;;;;;4.18;2.40;;;;;;;16.39;62.68;101520.88;5074509;28;20436;-50
2022/06/11 01:03:22;;;;;;;5.03;2.38;;;;;;;16.39;62.93;101520.00;5074439;28;20107;-50
2022/06/11 01:05:59;;;;;;;6.28;2.95;;;;;;;16.37;62.81;101522.66;5075234;28;20067;-50
2022/06/11 01:08:36;;;;;;;5.70;2.75;;;;;;;16.36;62.65;101513.09;5075436;28;20102;-52
2022/06/11 01:11:22;;;;;;;6.80;2.60;;;;;;;16.34;62.92;101512.25;5074956;28;20048;-54
2022/06/11 01:14:04;;;;;;;7.20;2.55;;;;;;;16.32;62.71;101510.56;5075613;28;20047;-54
2022/06/11 01:16:41;;;;;;;6.70;2.75;;;;;;;16.26;62.82;101514.16;5055345;28;20053;-54
2022/06/11 01:19:27;;;;;;;4.47;2.50;;;;;;;16.23;62.97;101514.22;5054753;28;20067;-51
2022/06/11 01:22:18;;;;;;;4.50;2.53;;;;;;;16.24;62.92;101520.31;5055441;28;20064;-52
2022/06/11 01:24:56;;;;;;;3.63;2.25;;;;;;;16.23;63.18;101518.59;5054689;28;20048;-51
2022/06/11 01:27:38;;;;;;;7.38;2.40;;;;;;;16.20;63.14;101519.53;5054364;28;20339;-52
2022/06/11 01:30:08;;;;;;;6.22;2.83;;;;;;;16.19;62.92;101528.25;5053777;28;20114;-54
2022/06/11 01:32:49;;;;;;;5.03;2.45;;;;;;;16.19;63.03;101522.16;5073712;28;20592;-52
2022/06/11 01:35:24;;;;;;;8.98;4.20;;;;;;;16.18;62.94;101523.06;5074850;28;20048;-54
2022/06/11 01:37:54;;;;;;;7.68;2.60;;;;;;;16.14;62.95;101527.47;5074953;28;20148;-55
2022/06/11 01:40:35;;;;;;;3.58;2.28;;;;;;;16.15;63.22;101520.50;5074858;28;20106;-51
2022/06/11 01:43:13;;;;;;;6.35;2.50;;;;;;;16.15;63.36;101526.59;5074541;28;20148;-54
2022/06/11 01:45:42;;;;;;;5.68;2.83;;;;;;;16.14;63.31;101522.25;5074342;28;20534;-53
2022/06/11 01:48:15;;;;;;;5.68;2.65;;;;;;;16.13;63.03;101525.75;5073969;28;20396;-52
2022/06/11 01:50:56;;;;;;;5.00;2.15;;;;;;;16.12;63.18;101529.22;5074290;28;20040;-51
2022/06/11 01:53:38;;;;;;;4.00;2.47;;;;;;;16.10;63.04;101531.00;5071998;28;20712;-50
2022/06/11 01:56:48;;;;;;;7.30;2.67;;;;;;;16.10;63.13;101528.41;5073708;28;20048;-54
2022/06/11 01:59:28;;;;;;;5.05;2.38;;;;;;;16.07;63.06;101529.31;5074098;28;20503;-53
2022/06/11 02:02:11;;;;;;;4.90;2.10;;;;;;;16.08;63.41;101530.19;5074401;28;20048;-49
2022/06/11 02:04:51;;;;;;;5.85;2.78;;;;;;;16.06;63.31;101532.81;5074057;28;20102;-49
2022/06/11 02:07:26;;;;;;;4.57;2.50;;;;;;;16.06;63.05;101538.06;5073994;28;20423;-49
2022/06/11 02:10:04;;;;;;;4.72;2.35;;;;;;;16.06;63.41;101542.44;5074590;28;20086;-49
2022/06/11 02:12:39;;;;;;;5.35;2.75;;;;;;;16.04;63.48;101539.84;5074155;28;20053;-50
2022/06/11 02:15:12;;;;;;;5.60;2.03;;;;;;;16.04;63.11;101549.44;5074041;28;20396;-49
2022/06/11 02:17:44;;;;;;;6.78;2.45;;;;;;;16.06;63.45;101547.66;5073965;28;20136;-49
2022/06/11 02:20:16;;;;;;;6.80;2.80;;;;;;;16.07;63.13;101552.00;5073770;28;20063;-49
2022/06/11 02:22:48;;;;;;;6.03;2.75;;;;;;;16.06;63.23;101552.88;5074356;28;20095;-50
2022/06/11 02:25:19;;;;;;;6.45;2.25;;;;;;;16.04;63.44;101549.44;5073626;28;20056;-52
2022/06/11 02:27:50;;;;;;;5.82;2.78;;;;;;;16.02;63.45;101551.22;5073759;28;20048;-50
2022/06/11 02:30:20;;;;;;;6.28;2.83;;;;;;;16.03;63.55;101558.16;5073798;28;20492;-52
2022/06/11 02:32:49;;;;;;;6.63;2.50;;;;;;;16.02;63.51;101562.53;5054298;28;20060;-49
2022/06/11 02:35:26;;;;;;;8.18;2.33;;;;;;;16.03;63.35;101563.41;5053935;28;20107;-50
2022/06/11 02:37:53;;;;;;;5.18;2.50;;;;;;;16.04;63.36;101565.13;5054144;28;20149;-52
2022/06/11 02:40:24;;;;;;;5.97;2.08;;;;;;;16.05;63.80;101561.63;5053806;28;20482;-52
2022/06/11 02:42:52;;;;;;;5.40;2.45;;;;;;;16.06;63.47;101563.34;5053642;28;20056;-51
2022/06/11 02:45:20;;;;;;;6.65;2.58;;;;;;;16.07;63.44;101559.84;5063158;28;20114;-53
2022/06/11 02:47:51;;;;;;;5.18;3.08;;;;;;;16.09;63.55;101563.28;5073859;28;20106;-51
2022/06/11 02:50:22;;;;;;;4.32;2.28;;;;;;;16.12;63.36;101573.69;5073944;28;20053;-49
2022/06/11 02:52:49;;;;;;;6.05;2.53;;;;;;;16.14;63.53;101577.19;5073832;28;20048;-49
2022/06/11 02:55:16;;;;;;;8.38;2.80;;;;;;;16.19;63.57;101575.34;5073455;28;20075;-53
2022/06/11 02:57:43;;;;;;;5.10;2.58;;;;;;;16.24;63.47;101581.34;5073263;28;20055;-52
2022/06/11 03:00:12;;;;;;;5.25;2.80;;;;;;;16.30;63.09;101589.09;5073569;28;20040;-50
2022/06/11 03:02:38;;;;;;;4.18;2.47;;;;;;;16.36;63.21;101591.59;5072951;28;20102;-49
2022/06/11 03:05:07;;;;;;;8.25;2.67;;;;;;;16.44;63.05;101585.34;5073098;28;20060;-52
2022/06/11 03:07:34;;;;;;;8.07;2.47;;;;;;;16.51;62.77;101589.56;5073117;28;20117;-52
2022/06/11 03:10:01;;;;;;;5.00;2.22;;;;;;;16.59;62.68;101590.28;5073482;28;20118;-50
2022/06/11 03:12:28;;;;;;;7.03;3.00;;;;;;;16.67;62.30;101583.19;5072924;28;20063;-50
2022/06/11 03:14:55;;;;;;;9.02;2.88;;;;;;;16.76;62.19;101590.00;5073108;28;20056;-50
2022/06/11 03:17:22;;;;;;;6.45;2.28;;;;;;;16.86;62.22;101584.53;5073131;28;20362;-49
2022/06/11 03:19:49;;;;;;;6.05;2.33;;;;;;;16.95;61.92;101586.09;5073308;28;20110;-51
2022/06/11 03:22:19;;;;;;;6.53;2.47;;;;;;;17.04;61.61;101584.13;5073329;28;20048;-53
2022/06/11 03:24:46;;;;;;;5.63;2.40;;;;;;;17.15;61.24;101586.50;5072978;28;20113;-51
2022/06/11 03:27:15;;;;;;;8.30;2.58;;;;;;;17.26;61.16;101588.94;5072752;28;20052;-50
2022/06/11 03:29:42;;;;;;;6.07;2.35;;;;;;;17.39;60.61;101595.59;5072856;28;20044;-49
2022/06/11 03:32:09;;;;;;;6.43;2.25;;;;;;;17.51;60.42;101589.22;5073030;28;20045;-49
2022/06/11 03:34:36;;;;;;;11.13;2.75;;;;;;;17.66;60.25;101599.34;5072707;28;20616;-49
2022/06/11 03:37:04;;;;;;;8.48;2.22;;;;;;;17.77;60.04;101596.50;5073065;28;20059;-53
2022/06/11 03:39:33;;;;;;;6.18;2.10;;;;;;;17.91;59.51;101597.03;5073121;28;20102;-50
2022/06/11 03:42:00;;;;;;;5.75;2.35;;;;;;;18.05;59.28;101596.66;5072915;28;20048;-50
2022/06/11 03:44:26;;;;;;;5.38;1.90;;;;;;;18.18;58.73;101593.69;5072615;28;20101;-49
2022/06/11 03:46:55;;;;;;;6.38;2.20;;;;;;;18.33;58.58;101591.59;5072700;28;20052;-50
2022/06/11 03:49:22;;;;;;;3.85;2.00;;;;;;;18.52;58.32;101592.78;5072761;28;20049;-49
2022/06/11 03:51:50;;;;;;;3.97;2.08;;;;;;;18.72;57.65;101595.75;5072556;28;20048;-51
2022/06/11 03:54:18;;;;;;;5.28;2.22;;;;;;;18.89;57.30;101593.53;5072375;28;20053;-54
2022/06/11 03:56:48;;;;;;;5.93;1.95;;;;;;;19.09;56.86;101599.94;5057722;28;20053;-54
2022/06/11 03:59:16;;;;;;;5.57;1.85;;;;;;;19.27;56.48;101599.41;5056309;28;20044;-51
2022/06/11 04:01:45;;;;;;;8.77;2.90;;;;;;;19.46;55.93;101604.94;5072795;28;20116;-53
2022/06/11 04:04:15;;;;;;;6.15;2.40;;;;;;;19.65;55.65;101605.25;5072473;28;20359;-54
2022/06/11 04:06:47;;;;;;;9.60;3.10;;;;;;;19.85;55.21;101602.84;5072696;28;20052;-50
2022/06/11 04:09:17;;;;;;;9.93;4.35;;;;;;;20.05;54.76;101597.78;5072228;28;20048;-51
2022/06/11 04:11:46;;;;;;;9.35;3.53;;;;;;;20.27;54.34;101600.53;5072936;28;20424;-51
2022/06/11 04:14:12;;;;;;;7.05;3.20;;;;;;;20.48;53.62;101604.22;5072673;28;20052;-51
2022/06/11 04:16:43;;;;;;;10.82;3.70;;;;;;;20.65;53.44;101601.84;5072871;28;20106;-54
2022/06/11 04:19:17;;;;;;;7.35;2.80;;;;;;;20.89;52.94;101599.22;5072444;28;20465;-52
2022/06/11 04:21:45;;;;;;;4.78;2.28;;;;;;;21.11;52.24;101608.03;5072687;28;20048;-53
2022/06/11 04:24:13;;;;;;;10.23;2.42;;;;;;;21.36;51.82;101605.38;5072338;28;20053;-53
2022/06/11 04:26:43;;;;;;;4.38;1.90;;;;;;;21.60;51.21;101603.50;5072364;28;20048;-51
2022/06/11 04:29:15;;;;;;;6.15;1.95;;;;;;;21.81;50.55;101607.91;5071811;28;20113;-52
2022/06/11 04:31:42;;;;;;;7.30;2.00;;;;;;;22.03;50.25;101603.50;5072455;28;20060;-52
2022/06/11 04:34:13;;;;;;;10.68;2.33;;;;;;;22.22;49.49;101592.16;5072383;28;20505;-52
2022/06/11 04:36:40;;;;;;;4.05;1.50;;;;;;;22.43;49.33;101601.81;5072535;28;20057;-55
2022/06/11 04:39:09;;;;;;;5.18;1.73;;;;;;;22.63;48.58;101593.84;5072470;28;20045;-55
2022/06/11 04:41:37;;;;;;;4.03;2.05;;;;;;;22.81;48.01;101596.59;5072464;28;20117;-51
2022/06/11 04:44:05;;;;;;;7.95;1.85;;;;;;;22.99;47.64;101595.78;5072012;28;20121;-52
2022/06/11 04:46:33;;;;;;;5.63;1.65;;;;;;;23.18;47.27;101593.13;5072372;28;20048;-52
2022/06/11 04:49:00;;;;;;;8.48;2.08;;;;;;;23.35;46.46;101592.31;5071979;28;20443;-53
2022/06/11 04:51:27;;;;;;;9.18;1.75;;;;;;;23.48;46.40;101604.91;5072536;28;20056;-51
2022/06/11 04:53:54;;;;;;;7.15;2.03;;;;;;;23.60;45.97;101608.75;5072260;28;20431;-52
2022/06/11 04:56:24;;;;;;;5.78;2.10;;;;;;;23.72;45.57;101608.16;5071249;28;20118;-53
2022/06/11 04:58:52;;;;;;;4.28;1.80;;;;;;;23.89;45.20;101600.22;5071873;28;20045;-54
2022/06/11 05:01:22;;;;;;;3.38;2.13;;;;;;;24.08;45.11;101604.63;5071815;28;20052;-51
2022/06/11 05:03:50;;;;;;;6.40;1.50;;;;;;;24.24;44.88;101602.88;5072337;28;20052;-53
2022/06/11 05:06:23;;;;;;;4.03;2.00;;;;;;;24.40;44.44;101603.81;5073720;28;20450;-52
2022/06/11 05:08:51;;;;;;;5.20;1.83;;;;;;;24.58;43.73;101607.31;5075993;28;20102;-51
2022/06/11 05:11:18;;;;;;;4.88;1.98;;;;;;;24.73;43.32;101608.31;5075699;28;20117;-51
2022/06/11 05:13:45;;;;;;;6.13;1.80;;;;;;;24.88;43.05;101607.47;5075796;28;20138;-52
2022/06/11 05:16:15;;;;;;;4.97;1.80;;;;;;;25.02;42.39;101609.41;5075691;28;20114;-54
2022/06/11 05:18:42;;;;;;;5.40;1.52;;;;;;;25.15;42.23;101611.31;5075838;28;20122;-51
2022/06/11 05:21:11;;;;;;;5.93;1.70;;;;;;;25.30;41.85;101612.25;5075190;28;20106;-52
2022/06/11 05:23:39;;;;;;;6.40;1.88;;;;;;;25.47;41.76;101611.28;5075380;28;20654;-52
2022/06/11 05:26:08;;;;;;;5.40;1.40;;;;;;;25.58;41.03;101608.91;5075607;28;20055;-52
2022/06/11 05:28:36;;;;;;;5.85;1.50;;;;;;;25.72;41.32;101611.66;5074768;28;20744;-50
2022/06/11 05:31:06;;;;;;;5.10;1.60;;;;;;;25.91;40.99;101613.22;5074744;28;20637;-52
2022/06/11 05:33:32;;;;;;;3.60;1.42;;;;;;;26.04;40.43;101616.91;5075167;28;20053;-54
2022/06/11 05:35:59;;;;;;;4.93;1.42;;;;;;;26.21;39.45;101611.44;5075390;28;20121;-51
2022/06/11 05:38:29;;;;;;;5.32;1.30;;;;;;;26.33;39.21;101616.03;5075036;28;20040;-51
2022/06/11 05:40:57;;;;;;;5.15;1.42;;;;;;;26.48;39.18;101616.91;5075098;28;20048;-51
2022/06/11 05:43:25;;;;;;;3.60;1.33;;;;;;;26.63;38.83;101615.13;5074934;28;20445;-51
2022/06/11 05:45:56;;;;;;;4.32;1.55;;;;;;;26.75;38.52;101618.81;5074978;28;20105;-51
2022/06/11 05:48:27;;;;;;;4.40;1.67;;;;;;;26.88;38.21;101633.91;5075069;28;20048;-51
2022/06/11 05:50:56;;;;;;;3.65;1.20;;;;;;;26.97;37.93;101625.34;5074745;28;20056;-51
2022/06/11 05:53:26;;;;;;;4.20;1.92;;;;;;;27.12;37.84;101628.06;5074438;28;20079;-53
2022/06/11 05:55:58;;;;;;;6.30;2.17;;;;;;;27.26;37.34;101636.88;5066357;28;20122;-53
2022/06/11 05:58:29;;;;;;;4.50;1.40;;;;;;;27.35;36.95;101640.75;5054867;28;20126;-51
2022/06/11 06:00:58;;;;;;;6.47;1.38;;;;;;;27.40;36.97;101640.44;5054247;28;20462;-52
2022/06/11 06:03:43;;;;;;;4.38;1.88;;;;;;;27.48;36.52;101636.31;5074134;28;20135;-54
2022/06/11 06:06:10;;;;;;;5.25;1.88;;;;;;;27.52;37.34;101637.81;5074887;28;20102;-50
2022/06/11 06:08:40;;;;;;;5.47;1.77;;;;;;;27.61;37.04;101636.44;5072686;28;20056;-52
2022/06/11 06:11:12;;;;;;;4.68;1.70;;;;;;;27.75;36.52;101638.19;5073355;28;20052;-50
2022/06/11 06:13:48;;;;;;;11.38;2.10;;;;;;;27.82;36.66;101639.47;5074118;28;20084;-55
2022/06/11 06:16:19;;;;;;;3.58;1.58;;;;;;;27.92;36.58;101645.91;5073596;28;20061;-55
2022/06/11 06:18:46;;;;;;;4.90;1.70;;;;;;;28.00;36.46;101638.25;5073067;28;20453;-50
2022/06/11 06:21:13;;;;;;;3.83;1.38;;;;;;;28.12;36.24;101632.13;5073201;28;20093;-51
2022/06/11 06:23:40;;;;;;;8.75;1.92;;;;;;;28.26;36.32;101634.72;5072933;28;20044;-51
2022/06/11 06:26:07;;;;;;;9.60;2.30;;;;;;;28.39;35.85;101633.88;5072686;28;20118;-52
2022/06/11 06:28:36;;;;;;;4.05;1.52;;;;;;;28.53;35.63;101625.75;5072493;28;20060;-52
2022/06/11 06:31:05;;;;;;;4.20;1.30;;;;;;;28.64;35.56;101628.56;5071876;28;20090;-52
2022/06/11 06:33:32;;;;;;;3.53;1.25;;;;;;;28.73;35.39;101627.06;5074085;28;20087;-54
2022/06/11 06:35:59;;;;;;;5.43;1.50;;;;;;;28.85;35.16;101627.06;5073254;28;20052;-54
2022/06/11 06:38:25;;;;;;;3.92;1.20;;;;;;;28.99;34.81;101628.75;5073474;28;20056;-51
2022/06/11 06:40:52;;;;;;;4.32;1.33;;;;;;;29.12;34.65;101618.03;5073684;28;20071;-52
2022/06/11 06:43:20;;;;;;;3.33;1.40;;;;;;;29.20;34.45;101635.22;5073527;28;20048;-50
2022/06/11 06:45:48;;;;;;;7.50;1.88;;;;;;;29.26;34.52;101630.41;5073344;28;20464;-50
2022/06/11 06:48:15;;;;;;;6.30;1.50;;;;;;;29.34;34.28;101634.22;5073221;28;20125;-50
2022/06/11 06:50:42;;;;;;;4.63;1.38;;;;;;;29.41;34.14;101630.13;5073023;28;20365;-50
2022/06/11 06:53:09;;;;;;;4.72;1.67;;;;;;;29.55;34.03;101630.94;5071265;28;20053;-50
2022/06/11 06:55:36;;;;;;;6.88;1.58;;;;;;;29.67;33.33;101619.38;5066577;28;20049;-51
2022/06/11 06:58:03;;;;;;;5.20;1.40;;;;;;;29.77;33.52;101625.75;5065240;28;20094;-52
2022/06/11 07:00:31;;;;;;;4.03;2.03;;;;;;;29.88;32.80;101627.59;5081472;28;20056;-55
2022/06/11 07:03:00;;;;;;;2.90;1.38;;;;;;;29.98;32.40;101629.44;5072225;28;20515;-53
2022/06/11 07:05:27;;;;;;;4.25;1.00;;;;;;;30.06;32.13;101627.06;5073386;28;20052;-55
2022/06/11 07:07:54;;;;;;;5.13;1.45;;;;;;;30.16;31.98;101621.88;5072495;28;20064;-50
2022/06/11 07:10:23;;;;;;;7.22;1.60;;;;;;;30.29;31.16;101611.09;5072786;28;20048;-50
2022/06/11 07:12:50;;;;;;;2.95;1.00;;;;;;;30.42;31.86;101614.53;5072751;28;20422;-51
2022/06/11 07:15:17;;;;;;;3.88;1.10;;;;;;;30.52;31.36;101612.84;5072668;28;20401;-51
2022/06/11 07:17:47;;;;;;;2.63;1.20;;;;;;;30.62;31.32;101616.50;5072368;28;20465;-51
2022/06/11 07:20:19;;;;;;;3.85;1.35;;;;;;;30.76;30.62;101615.44;5072883;28;20238;-51
2022/06/11 07:22:51;;;;;;;2.78;1.23;;;;;;;30.83;30.42;101622.00;5072919;28;20056;-53
2022/06/11 07:25:19;;;;;;;3.50;1.30;;;;;;;30.91;30.20;101618.72;5073082;28;20063;-54
2022/06/11 07:27:52;;;;;;;11.48;1.88;;;;;;;31.06;29.99;101617.47;5071777;28;20403;-52
2022/06/11 07:30:22;;;;;;;4.75;1.10;;;;;;;31.19;29.55;101607.50;5072649;28;20139;-51
2022/06/11 07:32:54;;;;;;;4.57;1.40;;;;;;;31.33;28.99;101614.44;5072695;28;20048;-52
2022/06/11 07:35:22;;;;;;;5.80;1.20;;;;;;;31.44;28.74;101610.88;5072989;28;20056;-51
2022/06/11 07:37:51;;;;;;;3.65;1.10;;;;;;;31.37;28.56;101621.25;5072694;28;20110;-55
2022/06/11 07:40:19;;;;;;;9.35;4.82;;;;;;;31.43;28.84;101609.16;5071477;28;20098;-53
2022/06/11 07:42:46;;;;;;;5.78;2.13;;;;;;;31.56;29.33;101610.69;5072346;28;20136;-51
2022/06/11 07:45:13;;;;;;;4.90;1.55;;;;;;;31.71;28.70;101616.63;5071672;28;20044;-51
2022/06/11 07:47:54;;;;;;;8.60;1.35;;;;;;;31.82;28.52;101619.28;5071718;28;20106;-52
2022/06/11 07:50:25;;;;;;;6.07;1.73;;;;;;;31.96;28.31;101608.25;5072253;28;20109;-51
2022/06/11 07:52:52;;;;;;;4.57;1.30;;;;;;;32.03;28.23;101613.09;5072749;28;20198;-51
2022/06/11 07:55:19;;;;;;;4.68;1.35;;;;;;;32.12;27.51;101618.50;5072389;28;20074;-52
2022/06/11 07:57:46;;;;;;;3.65;1.10;;;;;;;32.24;27.41;101616.59;5072376;28;20762;-53
2022/06/11 08:00:16;;;;;;;7.72;2.22;;;;;;;32.33;27.21;101613.19;5072316;28;20451;-54
2022/06/11 08:02:43;;;;;;;3.75;1.20;;;;;;;32.41;27.03;101610.69;5072090;28;20465;-52
2022/06/11 08:05:10;;;;;;;4.88;1.00;;;;;;;32.50;27.41;101611.72;5072753;28;20118;-55
2022/06/11 08:07:41;;;;;;;2.90;1.05;;;;;;;32.62;27.06;101606.13;5072265;28;20052;-54
2022/06/11 08:10:09;;;;;;;3.33;1.38;;;;;;;32.72;26.87;101610.66;5072664;28;20048;-51
2022/06/11 08:12:36;;;;;;;5.30;1.08;;;;;;;32.81;26.90;101609.91;5072483;28;20258;-51
2022/06/11 08:15:03;;;;;;;5.93;1.23;;;;;;;32.92;26.72;101616.03;5072344;28;20056;-53
2022/06/11 08:17:31;;;;;;;3.47;0.93;;;;;;;32.89;26.59;101613.63;5072454;28;20063;-52
2022/06/11 08:19:58;;;;;;;2.25;1.00;;;;;;;32.84;27.21;101609.66;5072004;28;20053;-54
2022/06/11 08:22:25;;;;;;;4.55;1.30;;;;;;;32.73;27.43;101610.53;5058592;28;20344;-52
2022/06/11 08:24:53;;;;;;;5.65;1.50;;;;;;;32.71;27.22;101603.59;5067844;28;20048;-55
2022/06/11 08:27:20;;;;;;;6.57;1.15;;;;;;;32.47;27.69;101610.16;5064781;28;20470;-55
2022/06/11 08:29:47;;;;;;;3.72;1.27;;;;;;;32.48;27.51;101613.69;5071980;28;20053;-51
2022/06/11 08:32:13;;;;;;;1.88;1.10;;;;;;;32.51;27.49;101606.22;5072105;28;20044;-53
2022/06/11 08:34:45;;;;;;;3.50;1.42;;;;;;;32.62;27.43;101606.13;5071924;28;20086;-51
2022/06/11 08:37:12;;;;;;;4.97;1.65;;;;;;;32.77;27.51;101603.06;5072258;28;20056;-51
2022/06/11 08:39:38;;;;;;;3.63;1.33;;;;;;;32.71;27.59;101601.78;5067277;28;20044;-51
2022/06/11 08:42:08;;;;;;;3.70;1.42;;;;;;;32.71;27.50;101606.28;5075493;28;20056;-51
2022/06/11 08:44:38;;;;;;;2.95;1.15;;;;;;;32.75;27.33;101605.03;5075441;28;20621;-51
2022/06/11 08:47:13;;;;;;;4.28;0.98;;;;;;;32.81;27.31;101607.25;5075401;28;20542;-51
2022/06/11 08:49:45;;;;;;;3.40;1.10;;;;;;;32.76;27.17;101606.72;5075189;28;20416;-51
2022/06/11 08:52:16;;;;;;;5.45;1.20;;;;;;;32.87;27.37;101609.38;5075478;28;20606;-51
2022/06/11 08:54:45;;;;;;;5.32;1.33;;;;;;;33.31;27.12;101601.88;5075726;28;20066;-51
2022/06/11 08:57:22;;;;;;;6.63;1.58;;;;;;;33.73;26.64;101608.69;5074854;28;20399;-53
2022/06/11 09:00:03;;;;;;;11.50;2.60;;;;;;;33.79;26.14;101597.34;5075384;28;20049;-54
2022/06/11 09:02:44;;;;;;;3.80;1.33;;;;;;;33.26;27.18;101600.41;5063218;28;20118;-54
2022/06/11 09:05:23;;;;;;;3.10;1.20;;;;;;;33.07;27.12;101605.75;5073699;28;20127;-55
2022/06/11 09:08:07;;;;;;;3.95;0.95;;;;;;;32.97;27.55;101604.88;5075291;28;20121;-54
2022/06/11 09:10:56;;;;;;;5.43;1.60;;;;;;;32.82;27.27;101604.41;5075585;28;20047;-51
2022/06/11 09:13:47;;;;;;;3.03;1.25;;;;;;;32.73;27.80;101601.63;5075431;28;20052;-53
2022/06/11 09:16:26;;;;;;;2.90;1.33;;;;;;;32.74;27.45;101603.31;5074960;28;20369;-54
2022/06/11 09:19:18;;;;;;;4.45;1.38;;;;;;;32.71;27.42;101599.09;5075441;28;20094;-55
2022/06/11 09:22:05;;;;;;;4.53;1.20;;;;;;;32.73;27.52;101602.47;5061350;28;20110;-55
2022/06/11 09:25:01;;;;;;;3.30;1.10;;;;;;;32.82;27.49;101603.56;5071201;28;20053;-52
2022/06/11 09:27:36;;;;;;;3.17;1.02;;;;;;;32.85;27.81;101600.59;5063174;28;20053;-55
2022/06/11 09:30:08;;;;;;;2.40;1.08;;;;;;;32.83;27.18;101586.47;5074775;28;20049;-54
2022/06/11 09:32:43;;;;;;;4.55;1.23;;;;;;;32.83;27.30;101592.69;5074849;28;20139;-51
2022/06/11 09:35:14;;;;;;;3.20;0.90;;;;;;;32.90;27.57;101587.63;5074517;28;20361;-54
2022/06/11 09:37:52;;;;;;;5.63;1.20;;;;;;;32.92;27.40;101586.50;5074553;28;20122;-54
2022/06/11 09:40:31;;;;;;;5.70;1.20;;;;;;;32.92;27.56;101585.66;5074752;28;20045;-52
2022/06/11 09:43:13;;;;;;;4.50;0.93;;;;;;;32.96;27.26;101578.16;5074648;28;20114;-54
2022/06/11 09:45:50;;;;;;;5.68;1.58;;;;;;;33.03;27.04;101582.84;5067049;28;20044;-54
2022/06/11 09:48:28;;;;;;;4.05;1.25;;;;;;;33.01;26.51;101574.06;5074630;28;20086;-55
2022/06/11 09:51:02;;;;;;;3.60;1.40;;;;;;;32.97;26.65;101572.66;5073712;28;20080;-51
2022/06/11 09:53:45;;;;;;;11.13;2.17;;;;;;;32.72;27.34;101576.63;5073752;28;20086;-53
2022/06/11 09:56:21;;;;;;;3.75;1.40;;;;;;;32.61;27.27;101571.34;5073721;28;20530;-54
2022/06/11 09:58:57;;;;;;;5.40;1.45;;;;;;;32.64;27.31;101571.94;5074070;28;20365;-53
2022/06/11 10:01:31;;;;;;;5.20;1.27;;;;;;;32.71;27.29;101572.25;5054592;28;20053;-52
2022/06/11 10:04:04;;;;;;;4.47;1.30;;;;;;;32.76;27.42;101567.31;5062138;28;20080;-52
2022/06/11 10:06:39;;;;;;;5.28;1.40;;;;;;;32.80;27.14;101563.44;5073813;28;20529;-55
2022/06/11 10:09:14;;;;;;;3.25;1.00;;;;;;;32.77;26.97;101565.47;5073757;28;20122;-51
2022/06/11 10:11:46;;;;;;;3.65;1.33;;;;;;;32.72;26.75;101563.19;5074171;28;20045;-51
2022/06/11 10:14:30;;;;;;;2.78;0.93;;;;;;;32.73;27.29;101556.00;5073976;28;20056;-54
2022/06/11 10:17:09;;;;;;;5.50;1.20;;;;;;;32.73;27.16;101554.16;5072917;28;20048;-51
2022/06/11 10:19:44;;;;;;;4.88;1.15;;;;;;;32.75;27.39;101551.34;5058934;28;20462;-51
2022/06/11 10:22:16;;;;;;;3.22;1.38;;;;;;;32.78;26.78;101551.09;5073668;28;20465;-51
2022/06/11 10:24:56;;;;;;;3.70;0.95;;;;;;;32.80;26.61;101538.41;5073736;28;20052;-51
2022/06/11 10:27:26;;;;;;;5.05;1.23;;;;;;;32.80;26.55;101539.25;5064687;28;20074;-53
2022/06/11 10:29:57;;;;;;;2.08;0.80;;;;;;;32.81;26.50;101540.13;5073713;28;20052;-51
2022/06/11 10:32:29;;;;;;;4.07;0.93;;;;;;;32.84;26.51;101540.69;5073691;28;20044;-52
2022/06/11 10:35:03;;;;;;;2.75;0.90;;;;;;;32.85;26.86;101528.09;5073777;28;20106;-53
2022/06/11 10:37:36;;;;;;;5.73;1.27;;;;;;;32.85;26.82;101542.38;5058265;28;20059;-54
2022/06/11 10:40:10;;;;;;;3.17;0.90;;;;;;;32.73;26.86;101529.16;5074735;28;20278;-51
2022/06/11 10:42:42;;;;;;;;;;;;;;;32.60;25.42;101527.56;5074468;28;20070;-51
2022/06/11 10:45:13;;;;;;;4.47;0.90;;;;;;;32.52;27.12;101530.09;5073214;28;20285;-51
2022/06/11 10:47:45;;;;;;;4.97;1.20;;;;;;;32.50;27.22;101526.69;5073247;28;20056;-51
2022/06/11 10:50:19;;;;;;;2.40;0.98;;;;;;;32.49;27.25;101530.34;5073646;28;20048;-51
2022/06/11 10:52:52;;;;;;;1.80;1.00;;;;;;;32.46;27.42;101529.78;5073473;28;20057;-51
2022/06/11 10:55:29;;;;;;;3.85;1.10;;;;;;;32.38;27.49;101527.78;5072776;28;20049;-51
2022/06/11 10:57:57;;;;;;;3.78;1.00;;;;;;;32.20;27.15;101530.19;5073193;28;20524;-51
2022/06/11 11:00:31;;;;;;;3.28;1.00;;;;;;;32.06;27.07;101527.00;5073360;28;20056;-52
2022/06/11 11:03:05;;;;;;;2.85;0.80;;;;;;;31.99;27.19;101522.19;5057280;28;20056;-53
2022/06/11 11:05:49;;;;;;;7.18;1.65;;;;;;;32.00;27.19;101517.66;5057794;28;20110;-54
2022/06/11 11:08:17;;;;;;;4.75;1.00;;;;;;;31.96;27.39;101522.44;5073024;28;20044;-53
2022/06/11 11:10:49;;;;;;;3.22;0.73;;;;;;;31.90;28.04;101517.63;5072935;28;20048;-55
2022/06/11 11:13:24;;;;;;;3.92;1.00;;;;;;;31.83;27.60;101513.75;5072794;28;20516;-55
2022/06/11 11:15:56;;;;;;;;;;;;;;;31.77;27.60;101522.31;5066897;28;20385;-54
2022/06/11 11:18:27;;;;;;;1.10;0.70;;;;;;;31.72;27.82;101519.16;5072735;28;19935;-54
2022/06/11 11:20:58;;;;;;;4.75;1.13;;;;;;;31.70;27.69;101526.47;5072851;28;20477;-55
2022/06/11 11:23:33;;;;;;;3.60;1.00;;;;;;;31.66;27.40;101525.00;5056402;28;20082;-55
2022/06/11 11:26:05;;;;;;;6.40;1.10;;;;;;;31.61;28.21;101514.69;5072691;28;20056;-55
2022/06/11 11:28:44;;;;;;;2.58;1.00;;;;;;;31.58;27.90;101516.78;5072467;28;20057;-55
2022/06/11 11:31:20;;;;;;;2.53;1.00;;;;;;;31.49;27.89;101513.03;5072874;28;20101;-54
2022/06/11 11:34:01;;;;;;;3.78;0.98;;;;;;;31.42;27.84;101508.34;5052646;28;20474;-51
2022/06/11 11:36:31;;;;;;;4.88;1.25;;;;;;;31.39;27.74;101506.78;5059582;28;20113;-55
2022/06/11 11:39:09;;;;;;;2.72;0.88;;;;;;;31.41;28.08;101504.81;5072826;28;20056;-53
2022/06/11 11:41:37;;;;;;;2.42;0.85;;;;;;;31.41;27.54;101504.81;5072648;28;20099;-53
2022/06/11 11:44:06;;;;;;;1.85;0.80;;;;;;;31.28;27.63;101498.78;5072852;28;20117;-54